sensor_id;sensor_type;location;lat;lon;timestamp;P1;durP1;ratioP1;P2;durP2;ratioP2
46491;SDS011;32206;51.446;6.792;2023-08-31T00:00:53;9.38;;;4.53;;
46491;SDS011;32206;51.446;6.792;2023-08-31T00:03:18;11.13;;;4.85;;
46491;SDS011;32206;51.446;6.792;2023-08-31T00:05:44;16.98;;;6.20;;
46491;SDS011;32206;51.446;6.792;2023-08-31T00:08:10;22.38;;;7.72;;
46491;SDS011;32206;51.446;6.792;2023-08-31T00:10:39;17.13;;;7.15;;
46491;SDS011;32206;51.446;6.792;2023-08-31T00:13:05;22.55;;;7.30;;
46491;SDS011;32206;51.446;6.792;2023-08-31T00:15:34;23.48;;;7.75;;
46491;SDS011;32206;51.446;6.792;2023-08-31T00:18:01;25.65;;;7.55;;
46491;SDS011;32206;51.446;6.792;2023-08-31T00:20:29;17.75;;;6.22;;
46491;SDS011;32206;51.446;6.792;2023-08-31T00:23:00;12.50;;;5.15;;
46491;SDS011;32206;51.446;6.792;2023-08-31T00:25:26;17.50;;;5.88;;
46491;SDS011;32206;51.446;6.792;2023-08-31T00:27:53;13.68;;;5.30;;
46491;SDS011;32206;51.446;6.792;2023-08-31T00:30:19;9.10;;;4.82;;
46491;SDS011;32206;51.446;6.792;2023-08-31T00:32:45;9.98;;;5.03;;
46491;SDS011;32206;51.446;6.792;2023-08-31T00:35:15;14.02;;;5.38;;
46491;SDS011;32206;51.446;6.792;2023-08-31T00:37:49;10.32;;;4.07;;
46491;SDS011;32206;51.446;6.792;2023-08-31T00:40:16;12.45;;;3.78;;
46491;SDS011;32206;51.446;6.792;2023-08-31T00:42:42;14.05;;;4.47;;
46491;SDS011;32206;51.446;6.792;2023-08-31T00:45:07;13.80;;;3.97;;
46491;SDS011;32206;51.446;6.792;2023-08-31T00:47:33;9.15;;;4.05;;
46491;SDS011;32206;51.446;6.792;2023-08-31T00:49:59;10.32;;;3.60;;
46491;SDS011;32206;51.446;6.792;2023-08-31T00:52:25;6.25;;;2.95;;
46491;SDS011;32206;51.446;6.792;2023-08-31T00:54:51;7.88;;;2.75;;
46491;SDS011;32206;51.446;6.792;2023-08-31T00:57:17;8.85;;;3.55;;
46491;SDS011;32206;51.446;6.792;2023-08-31T00:59:43;6.35;;;4.15;;
46491;SDS011;32206;51.446;6.792;2023-08-31T01:07:34;8.27;;;3.70;;
46491;SDS011;32206;51.446;6.792;2023-08-31T01:10:18;9.27;;;3.25;;
46491;SDS011;32206;51.446;6.792;2023-08-31T01:13:00;7.97;;;3.88;;
46491;SDS011;32206;51.446;6.792;2023-08-31T01:15:30;10.13;;;3.58;;
46491;SDS011;32206;51.446;6.792;2023-08-31T01:17:57;6.07;;;3.10;;
46491;SDS011;32206;51.446;6.792;2023-08-31T01:20:31;5.95;;;2.50;;
46491;SDS011;32206;51.446;6.792;2023-08-31T01:23:10;6.38;;;2.90;;
46491;SDS011;32206;51.446;6.792;2023-08-31T01:25:38;4.50;;;3.00;;
46491;SDS011;32206;51.446;6.792;2023-08-31T01:28:07;5.63;;;2.58;;
46491;SDS011;32206;51.446;6.792;2023-08-31T01:30:34;2.70;;;2.20;;
46491;SDS011;32206;51.446;6.792;2023-08-31T01:32:59;6.00;;;2.45;;
46491;SDS011;32206;51.446;6.792;2023-08-31T01:35:26;4.38;;;2.38;;
46491;SDS011;32206;51.446;6.792;2023-08-31T01:38:01;2.20;;;2.00;;
46491;SDS011;32206;51.446;6.792;2023-08-31T01:40:31;4.68;;;2.15;;
46491;SDS011;32206;51.446;6.792;2023-08-31T01:43:01;4.50;;;2.47;;
46491;SDS011;32206;51.446;6.792;2023-08-31T01:45:29;3.58;;;2.65;;
46491;SDS011;32206;51.446;6.792;2023-08-31T01:51:18;4.72;;;2.95;;
46491;SDS011;32206;51.446;6.792;2023-08-31T01:53:44;3.72;;;3.17;;
46491;SDS011;32206;51.446;6.792;2023-08-31T01:56:10;5.85;;;2.65;;
46491;SDS011;32206;51.446;6.792;2023-08-31T01:58:35;3.13;;;2.20;;
46491;SDS011;32206;51.446;6.792;2023-08-31T02:01:01;2.85;;;2.40;;
46491;SDS011;32206;51.446;6.792;2023-08-31T02:03:27;7.38;;;2.58;;
46491;SDS011;32206;51.446;6.792;2023-08-31T02:05:52;4.63;;;2.55;;
46491;SDS011;32206;51.446;6.792;2023-08-31T02:08:18;2.97;;;2.67;;
46491;SDS011;32206;51.446;6.792;2023-08-31T02:10:45;4.43;;;2.72;;
46491;SDS011;32206;51.446;6.792;2023-08-31T02:13:13;6.45;;;3.33;;
46491;SDS011;32206;51.446;6.792;2023-08-31T02:15:39;4.15;;;2.65;;
46491;SDS011;32206;51.446;6.792;2023-08-31T02:18:07;6.60;;;4.05;;
46491;SDS011;32206;51.446;6.792;2023-08-31T02:20:33;5.80;;;3.03;;
46491;SDS011;32206;51.446;6.792;2023-08-31T02:22:59;4.60;;;2.85;;
46491;SDS011;32206;51.446;6.792;2023-08-31T02:25:25;5.68;;;3.15;;
46491;SDS011;32206;51.446;6.792;2023-08-31T02:27:52;3.83;;;2.80;;
46491;SDS011;32206;51.446;6.792;2023-08-31T02:30:19;3.78;;;2.80;;
46491;SDS011;32206;51.446;6.792;2023-08-31T02:32:44;5.97;;;2.80;;
46491;SDS011;32206;51.446;6.792;2023-08-31T02:35:10;5.22;;;2.90;;
46491;SDS011;32206;51.446;6.792;2023-08-31T02:37:37;3.25;;;3.03;;
46491;SDS011;32206;51.446;6.792;2023-08-31T02:40:03;3.25;;;2.90;;
46491;SDS011;32206;51.446;6.792;2023-08-31T02:42:30;7.07;;;3.13;;
46491;SDS011;32206;51.446;6.792;2023-08-31T02:44:55;5.50;;;3.13;;
46491;SDS011;32206;51.446;6.792;2023-08-31T02:47:21;7.38;;;3.70;;
46491;SDS011;32206;51.446;6.792;2023-08-31T02:49:46;7.70;;;3.90;;
46491;SDS011;32206;51.446;6.792;2023-08-31T02:52:13;3.60;;;3.20;;
46491;SDS011;32206;51.446;6.792;2023-08-31T02:54:39;3.92;;;2.95;;
46491;SDS011;32206;51.446;6.792;2023-08-31T02:57:04;5.43;;;4.55;;
46491;SDS011;32206;51.446;6.792;2023-08-31T02:59:31;5.47;;;2.75;;
46491;SDS011;32206;51.446;6.792;2023-08-31T03:02:00;8.05;;;3.17;;
46491;SDS011;32206;51.446;6.792;2023-08-31T03:04:27;8.23;;;2.90;;
46491;SDS011;32206;51.446;6.792;2023-08-31T03:06:52;4.22;;;3.33;;
46491;SDS011;32206;51.446;6.792;2023-08-31T03:09:18;5.20;;;3.10;;
46491;SDS011;32206;51.446;6.792;2023-08-31T03:11:45;4.93;;;2.97;;
46491;SDS011;32206;51.446;6.792;2023-08-31T03:14:11;7.32;;;3.30;;
46491;SDS011;32206;51.446;6.792;2023-08-31T03:16:36;6.57;;;3.50;;
46491;SDS011;32206;51.446;6.792;2023-08-31T03:19:02;5.47;;;3.17;;
46491;SDS011;32206;51.446;6.792;2023-08-31T03:21:28;8.13;;;3.40;;
46491;SDS011;32206;51.446;6.792;2023-08-31T03:23:53;6.07;;;3.28;;
46491;SDS011;32206;51.446;6.792;2023-08-31T03:26:19;5.57;;;2.80;;
46491;SDS011;32206;51.446;6.792;2023-08-31T03:28:45;5.15;;;3.35;;
46491;SDS011;32206;51.446;6.792;2023-08-31T03:31:10;4.93;;;3.03;;
46491;SDS011;32206;51.446;6.792;2023-08-31T03:33:36;4.07;;;3.05;;
46491;SDS011;32206;51.446;6.792;2023-08-31T03:36:02;3.85;;;3.15;;
46491;SDS011;32206;51.446;6.792;2023-08-31T03:38:29;3.95;;;3.55;;
46491;SDS011;32206;51.446;6.792;2023-08-31T03:40:56;3.28;;;2.97;;
46491;SDS011;32206;51.446;6.792;2023-08-31T03:43:22;4.22;;;2.92;;
46491;SDS011;32206;51.446;6.792;2023-08-31T03:45:48;4.88;;;3.35;;
46491;SDS011;32206;51.446;6.792;2023-08-31T03:48:14;7.13;;;4.72;;
46491;SDS011;32206;51.446;6.792;2023-08-31T03:50:40;10.63;;;7.72;;
46491;SDS011;32206;51.446;6.792;2023-08-31T03:53:05;6.43;;;3.85;;
46491;SDS011;32206;51.446;6.792;2023-08-31T03:55:31;4.75;;;4.10;;
46491;SDS011;32206;51.446;6.792;2023-08-31T03:57:57;6.88;;;3.63;;
46491;SDS011;32206;51.446;6.792;2023-08-31T04:00:23;4.88;;;3.40;;
46491;SDS011;32206;51.446;6.792;2023-08-31T04:02:49;6.70;;;3.80;;
46491;SDS011;32206;51.446;6.792;2023-08-31T04:05:14;4.22;;;3.83;;
46491;SDS011;32206;51.446;6.792;2023-08-31T04:07:41;4.40;;;4.00;;
46491;SDS011;32206;51.446;6.792;2023-08-31T04:20:01;5.47;;;3.70;;
46491;SDS011;32206;51.446;6.792;2023-08-31T04:22:26;4.45;;;3.50;;
46491;SDS011;32206;51.446;6.792;2023-08-31T04:24:52;4.28;;;3.53;;
46491;SDS011;32206;51.446;6.792;2023-08-31T04:27:18;5.82;;;4.15;;
46491;SDS011;32206;51.446;6.792;2023-08-31T04:32:44;5.00;;;3.83;;
46491;SDS011;32206;51.446;6.792;2023-08-31T04:35:11;5.47;;;3.78;;
46491;SDS011;32206;51.446;6.792;2023-08-31T04:37:37;8.85;;;3.40;;
46491;SDS011;32206;51.446;6.792;2023-08-31T04:40:03;5.00;;;3.60;;
46491;SDS011;32206;51.446;6.792;2023-08-31T04:45:52;5.35;;;3.22;;
46491;SDS011;32206;51.446;6.792;2023-08-31T04:48:18;8.57;;;3.47;;
46491;SDS011;32206;51.446;6.792;2023-08-31T04:50:44;7.80;;;3.72;;
46491;SDS011;32206;51.446;6.792;2023-08-31T04:53:10;9.70;;;3.72;;
46491;SDS011;32206;51.446;6.792;2023-08-31T04:55:36;6.10;;;3.72;;
46491;SDS011;32206;51.446;6.792;2023-08-31T04:58:02;6.63;;;3.13;;
46491;SDS011;32206;51.446;6.792;2023-08-31T05:00:28;6.13;;;3.65;;
46491;SDS011;32206;51.446;6.792;2023-08-31T05:02:55;6.65;;;4.00;;
46491;SDS011;32206;51.446;6.792;2023-08-31T05:05:21;6.13;;;3.78;;
46491;SDS011;32206;51.446;6.792;2023-08-31T05:07:46;4.50;;;3.80;;
46491;SDS011;32206;51.446;6.792;2023-08-31T05:10:12;5.30;;;3.40;;
46491;SDS011;32206;51.446;6.792;2023-08-31T05:12:38;7.13;;;3.72;;
46491;SDS011;32206;51.446;6.792;2023-08-31T05:15:04;9.00;;;5.10;;
46491;SDS011;32206;51.446;6.792;2023-08-31T05:17:30;4.40;;;4.00;;
46491;SDS011;32206;51.446;6.792;2023-08-31T05:19:56;6.32;;;4.38;;
46491;SDS011;32206;51.446;6.792;2023-08-31T05:22:22;5.35;;;4.05;;
46491;SDS011;32206;51.446;6.792;2023-08-31T05:24:48;5.35;;;3.30;;
46491;SDS011;32206;51.446;6.792;2023-08-31T05:27:14;6.60;;;4.38;;
46491;SDS011;32206;51.446;6.792;2023-08-31T05:29:39;4.53;;;3.63;;
46491;SDS011;32206;51.446;6.792;2023-08-31T05:35:27;5.55;;;4.35;;
46491;SDS011;32206;51.446;6.792;2023-08-31T05:37:53;5.55;;;3.83;;
46491;SDS011;32206;51.446;6.792;2023-08-31T05:40:19;7.38;;;4.32;;
46491;SDS011;32206;51.446;6.792;2023-08-31T05:42:44;6.45;;;4.57;;
46491;SDS011;32206;51.446;6.792;2023-08-31T05:45:10;7.68;;;3.85;;
46491;SDS011;32206;51.446;6.792;2023-08-31T05:47:36;5.10;;;4.07;;
46491;SDS011;32206;51.446;6.792;2023-08-31T05:50:03;4.45;;;3.88;;
46491;SDS011;32206;51.446;6.792;2023-08-31T05:52:29;11.07;;;4.82;;
46491;SDS011;32206;51.446;6.792;2023-08-31T05:54:55;5.10;;;4.50;;
46491;SDS011;32206;51.446;6.792;2023-08-31T05:57:21;8.10;;;4.70;;
46491;SDS011;32206;51.446;6.792;2023-08-31T05:59:47;5.93;;;3.88;;
46491;SDS011;32206;51.446;6.792;2023-08-31T06:05:16;6.38;;;4.32;;
46491;SDS011;32206;51.446;6.792;2023-08-31T06:07:42;5.45;;;4.82;;
46491;SDS011;32206;51.446;6.792;2023-08-31T06:10:08;5.93;;;4.68;;
46491;SDS011;32206;51.446;6.792;2023-08-31T06:12:34;8.63;;;5.00;;
46491;SDS011;32206;51.446;6.792;2023-08-31T06:15:00;6.78;;;4.43;;
46491;SDS011;32206;51.446;6.792;2023-08-31T06:17:26;9.18;;;4.95;;
46491;SDS011;32206;51.446;6.792;2023-08-31T06:19:52;8.55;;;5.13;;
46491;SDS011;32206;51.446;6.792;2023-08-31T06:22:17;9.60;;;5.35;;
46491;SDS011;32206;51.446;6.792;2023-08-31T06:24:43;7.65;;;5.03;;
46491;SDS011;32206;51.446;6.792;2023-08-31T06:27:10;8.70;;;4.63;;
46491;SDS011;32206;51.446;6.792;2023-08-31T06:29:37;8.82;;;4.97;;
46491;SDS011;32206;51.446;6.792;2023-08-31T06:32:03;7.05;;;4.15;;
46491;SDS011;32206;51.446;6.792;2023-08-31T06:34:29;8.90;;;4.60;;
46491;SDS011;32206;51.446;6.792;2023-08-31T06:36:56;8.35;;;5.50;;
46491;SDS011;32206;51.446;6.792;2023-08-31T06:39:23;6.35;;;3.80;;
46491;SDS011;32206;51.446;6.792;2023-08-31T06:41:49;6.00;;;3.40;;
46491;SDS011;32206;51.446;6.792;2023-08-31T06:44:15;7.13;;;3.58;;
46491;SDS011;32206;51.446;6.792;2023-08-31T06:46:41;5.93;;;3.60;;
46491;SDS011;32206;51.446;6.792;2023-08-31T06:49:07;5.82;;;3.53;;
46491;SDS011;32206;51.446;6.792;2023-08-31T06:51:34;5.93;;;3.40;;
46491;SDS011;32206;51.446;6.792;2023-08-31T06:54:00;4.20;;;3.30;;
46491;SDS011;32206;51.446;6.792;2023-08-31T06:56:32;7.22;;;3.42;;
46491;SDS011;32206;51.446;6.792;2023-08-31T06:58:58;3.78;;;3.42;;
46491;SDS011;32206;51.446;6.792;2023-08-31T07:01:24;4.20;;;3.45;;
46491;SDS011;32206;51.446;6.792;2023-08-31T07:03:52;3.60;;;3.08;;
46491;SDS011;32206;51.446;6.792;2023-08-31T07:06:18;4.90;;;3.15;;
46491;SDS011;32206;51.446;6.792;2023-08-31T07:08:43;6.68;;;2.78;;
46491;SDS011;32206;51.446;6.792;2023-08-31T07:11:10;5.15;;;2.55;;
46491;SDS011;32206;51.446;6.792;2023-08-31T07:13:36;6.88;;;2.78;;
46491;SDS011;32206;51.446;6.792;2023-08-31T07:16:02;4.95;;;2.83;;
46491;SDS011;32206;51.446;6.792;2023-08-31T07:18:28;5.40;;;2.47;;
46491;SDS011;32206;51.446;6.792;2023-08-31T07:20:53;6.93;;;2.55;;
46491;SDS011;32206;51.446;6.792;2023-08-31T07:23:28;3.75;;;2.90;;
46491;SDS011;32206;51.446;6.792;2023-08-31T07:25:56;4.38;;;2.95;;
46491;SDS011;32206;51.446;6.792;2023-08-31T07:28:23;3.22;;;2.00;;
46491;SDS011;32206;51.446;6.792;2023-08-31T07:30:48;5.53;;;3.17;;
46491;SDS011;32206;51.446;6.792;2023-08-31T07:36:36;5.85;;;2.58;;
46491;SDS011;32206;51.446;6.792;2023-08-31T07:39:02;5.65;;;1.92;;
46491;SDS011;32206;51.446;6.792;2023-08-31T07:41:29;2.65;;;1.70;;
46491;SDS011;32206;51.446;6.792;2023-08-31T07:43:55;7.50;;;2.40;;
46491;SDS011;32206;51.446;6.792;2023-08-31T07:46:20;2.95;;;1.85;;
46491;SDS011;32206;51.446;6.792;2023-08-31T07:48:46;4.22;;;2.00;;
46491;SDS011;32206;51.446;6.792;2023-08-31T07:51:13;3.45;;;1.88;;
46491;SDS011;32206;51.446;6.792;2023-08-31T07:53:39;2.80;;;2.15;;
46491;SDS011;32206;51.446;6.792;2023-08-31T07:56:05;3.92;;;2.28;;
46491;SDS011;32206;51.446;6.792;2023-08-31T07:58:30;2.20;;;1.85;;
46491;SDS011;32206;51.446;6.792;2023-08-31T08:00:56;4.63;;;2.35;;
46491;SDS011;32206;51.446;6.792;2023-08-31T08:03:22;3.72;;;1.85;;
46491;SDS011;32206;51.446;6.792;2023-08-31T08:05:48;3.95;;;1.92;;
46491;SDS011;32206;51.446;6.792;2023-08-31T08:08:14;2.63;;;2.05;;
46491;SDS011;32206;51.446;6.792;2023-08-31T08:10:40;4.03;;;2.15;;
46491;SDS011;32206;51.446;6.792;2023-08-31T08:13:06;3.47;;;2.38;;
46491;SDS011;32206;51.446;6.792;2023-08-31T08:15:31;2.15;;;1.95;;
46491;SDS011;32206;51.446;6.792;2023-08-31T08:17:57;6.03;;;2.80;;
46491;SDS011;32206;51.446;6.792;2023-08-31T08:20:23;2.97;;;2.17;;
46491;SDS011;32206;51.446;6.792;2023-08-31T08:22:49;5.38;;;1.95;;
46491;SDS011;32206;51.446;6.792;2023-08-31T08:25:21;3.60;;;1.98;;
46491;SDS011;32206;51.446;6.792;2023-08-31T08:27:47;8.00;;;2.60;;
46491;SDS011;32206;51.446;6.792;2023-08-31T08:36:58;6.32;;;2.38;;
46491;SDS011;32206;51.446;6.792;2023-08-31T08:39:23;7.35;;;2.75;;
46491;SDS011;32206;51.446;6.792;2023-08-31T08:41:49;3.15;;;2.63;;
46491;SDS011;32206;51.446;6.792;2023-08-31T08:44:15;5.75;;;3.17;;
46491;SDS011;32206;51.446;6.792;2023-08-31T08:46:44;5.40;;;3.47;;
46491;SDS011;32206;51.446;6.792;2023-08-31T08:49:11;5.13;;;2.80;;
46491;SDS011;32206;51.446;6.792;2023-08-31T08:55:00;3.63;;;2.55;;
46491;SDS011;32206;51.446;6.792;2023-08-31T08:57:27;9.23;;;3.40;;
46491;SDS011;32206;51.446;6.792;2023-08-31T08:59:53;4.95;;;3.42;;
46491;SDS011;32206;51.446;6.792;2023-08-31T09:02:19;15.48;;;4.85;;
46491;SDS011;32206;51.446;6.792;2023-08-31T09:04:44;6.05;;;2.65;;
46491;SDS011;32206;51.446;6.792;2023-08-31T09:07:10;5.43;;;2.70;;
46491;SDS011;32206;51.446;6.792;2023-08-31T09:09:48;6.75;;;2.45;;
46491;SDS011;32206;51.446;6.792;2023-08-31T09:12:15;3.38;;;2.15;;
46491;SDS011;32206;51.446;6.792;2023-08-31T09:14:41;4.07;;;2.45;;
46491;SDS011;32206;51.446;6.792;2023-08-31T09:20:46;9.13;;;2.72;;
46491;SDS011;32206;51.446;6.792;2023-08-31T09:26:37;6.80;;;2.35;;
46491;SDS011;32206;51.446;6.792;2023-08-31T09:29:04;4.53;;;2.08;;
46491;SDS011;32206;51.446;6.792;2023-08-31T09:31:33;3.70;;;2.28;;
46491;SDS011;32206;51.446;6.792;2023-08-31T09:33:59;5.28;;;2.60;;
46491;SDS011;32206;51.446;6.792;2023-08-31T09:36:26;3.83;;;1.60;;
46491;SDS011;32206;51.446;6.792;2023-08-31T09:38:56;3.25;;;1.58;;
46491;SDS011;32206;51.446;6.792;2023-08-31T09:41:23;3.35;;;1.92;;
46491;SDS011;32206;51.446;6.792;2023-08-31T09:43:48;2.30;;;1.50;;
46491;SDS011;32206;51.446;6.792;2023-08-31T09:46:14;6.97;;;1.60;;
46491;SDS011;32206;51.446;6.792;2023-08-31T09:48:41;3.90;;;1.58;;
46491;SDS011;32206;51.446;6.792;2023-08-31T09:51:09;1.95;;;1.15;;
46491;SDS011;32206;51.446;6.792;2023-08-31T09:53:36;3.58;;;1.40;;
46491;SDS011;32206;51.446;6.792;2023-08-31T09:56:03;3.33;;;0.90;;
46491;SDS011;32206;51.446;6.792;2023-08-31T09:58:30;3.30;;;1.20;;
46491;SDS011;32206;51.446;6.792;2023-08-31T10:04:19;5.72;;;1.63;;
46491;SDS011;32206;51.446;6.792;2023-08-31T10:06:45;3.55;;;1.40;;
46491;SDS011;32206;51.446;6.792;2023-08-31T10:09:11;3.13;;;1.17;;
46491;SDS011;32206;51.446;6.792;2023-08-31T10:11:38;3.58;;;1.17;;
46491;SDS011;32206;51.446;6.792;2023-08-31T10:14:05;2.95;;;1.77;;
46491;SDS011;32206;51.446;6.792;2023-08-31T10:19:56;3.40;;;1.27;;
46491;SDS011;32206;51.446;6.792;2023-08-31T10:28:24;6.68;;;1.50;;
46491;SDS011;32206;51.446;6.792;2023-08-31T10:31:02;2.67;;;1.40;;
46491;SDS011;32206;51.446;6.792;2023-08-31T10:33:54;4.47;;;2.47;;
46491;SDS011;32206;51.446;6.792;2023-08-31T10:36:44;3.10;;;1.40;;
46491;SDS011;32206;51.446;6.792;2023-08-31T10:41:38;7.15;;;1.80;;
46491;SDS011;32206;51.446;6.792;2023-08-31T10:44:18;3.75;;;1.92;;
46491;SDS011;32206;51.446;6.792;2023-08-31T10:46:45;2.55;;;1.25;;
46491;SDS011;32206;51.446;6.792;2023-08-31T10:55:04;2.70;;;1.75;;
46491;SDS011;32206;51.446;6.792;2023-08-31T10:57:30;4.03;;;1.30;;
46491;SDS011;32206;51.446;6.792;2023-08-31T10:59:56;2.05;;;1.42;;
46491;SDS011;32206;51.446;6.792;2023-08-31T11:02:42;4.13;;;1.40;;
46491;SDS011;32206;51.446;6.792;2023-08-31T11:07:35;7.18;;;1.92;;
46491;SDS011;32206;51.446;6.792;2023-08-31T11:10:09;1.85;;;1.20;;
46491;SDS011;32206;51.446;6.792;2023-08-31T11:12:36;2.83;;;1.00;;
46491;SDS011;32206;51.446;6.792;2023-08-31T11:15:02;3.50;;;1.65;;
46491;SDS011;32206;51.446;6.792;2023-08-31T11:17:29;2.97;;;1.10;;
46491;SDS011;32206;51.446;6.792;2023-08-31T11:19:56;4.05;;;1.35;;
46491;SDS011;32206;51.446;6.792;2023-08-31T11:22:22;5.95;;;1.52;;
46491;SDS011;32206;51.446;6.792;2023-08-31T11:24:47;7.38;;;1.75;;
46491;SDS011;32206;51.446;6.792;2023-08-31T11:27:14;6.25;;;2.15;;
46491;SDS011;32206;51.446;6.792;2023-08-31T11:29:43;2.28;;;1.13;;
46491;SDS011;32206;51.446;6.792;2023-08-31T11:32:10;8.63;;;1.40;;
46491;SDS011;32206;51.446;6.792;2023-08-31T11:34:39;3.42;;;1.35;;
46491;SDS011;32206;51.446;6.792;2023-08-31T11:37:07;2.63;;;1.13;;
46491;SDS011;32206;51.446;6.792;2023-08-31T11:39:33;3.67;;;1.20;;
46491;SDS011;32206;51.446;6.792;2023-08-31T11:41:58;3.70;;;1.13;;
46491;SDS011;32206;51.446;6.792;2023-08-31T11:44:24;2.80;;;0.93;;
46491;SDS011;32206;51.446;6.792;2023-08-31T11:46:51;2.97;;;1.85;;
46491;SDS011;32206;51.446;6.792;2023-08-31T11:49:17;6.70;;;1.45;;
46491;SDS011;32206;51.446;6.792;2023-08-31T11:51:43;2.75;;;1.15;;
46491;SDS011;32206;51.446;6.792;2023-08-31T11:54:10;1.75;;;0.90;;
46491;SDS011;32206;51.446;6.792;2023-08-31T11:56:42;5.22;;;0.90;;
46491;SDS011;32206;51.446;6.792;2023-08-31T11:59:11;3.53;;;1.38;;
46491;SDS011;32206;51.446;6.792;2023-08-31T12:01:40;2.97;;;1.20;;
46491;SDS011;32206;51.446;6.792;2023-08-31T12:04:13;2.75;;;1.20;;
46491;SDS011;32206;51.446;6.792;2023-08-31T12:06:40;3.47;;;0.98;;
46491;SDS011;32206;51.446;6.792;2023-08-31T12:09:09;3.95;;;1.33;;
46491;SDS011;32206;51.446;6.792;2023-08-31T12:11:35;5.00;;;1.08;;
46491;SDS011;32206;51.446;6.792;2023-08-31T12:14:01;3.85;;;2.08;;
46491;SDS011;32206;51.446;6.792;2023-08-31T12:16:32;3.63;;;2.08;;
46491;SDS011;32206;51.446;6.792;2023-08-31T12:19:04;3.17;;;1.40;;
46491;SDS011;32206;51.446;6.792;2023-08-31T12:21:33;3.65;;;1.30;;
46491;SDS011;32206;51.446;6.792;2023-08-31T12:23:59;3.65;;;1.63;;
46491;SDS011;32206;51.446;6.792;2023-08-31T12:26:25;4.82;;;1.75;;
46491;SDS011;32206;51.446;6.792;2023-08-31T12:28:51;5.55;;;1.50;;
46491;SDS011;32206;51.446;6.792;2023-08-31T12:31:17;4.43;;;1.70;;
46491;SDS011;32206;51.446;6.792;2023-08-31T12:33:43;6.38;;;1.67;;
46491;SDS011;32206;51.446;6.792;2023-08-31T12:36:09;2.50;;;1.10;;
46491;SDS011;32206;51.446;6.792;2023-08-31T12:38:34;5.47;;;1.15;;
46491;SDS011;32206;51.446;6.792;2023-08-31T12:41:05;2.85;;;1.00;;
46491;SDS011;32206;51.446;6.792;2023-08-31T12:43:30;5.30;;;1.17;;
46491;SDS011;32206;51.446;6.792;2023-08-31T12:45:56;3.45;;;1.08;;
46491;SDS011;32206;51.446;6.792;2023-08-31T12:48:22;2.72;;;1.27;;
46491;SDS011;32206;51.446;6.792;2023-08-31T12:50:48;6.22;;;1.92;;
46491;SDS011;32206;51.446;6.792;2023-08-31T12:53:14;4.45;;;2.03;;
46491;SDS011;32206;51.446;6.792;2023-08-31T12:55:40;4.00;;;1.42;;
46491;SDS011;32206;51.446;6.792;2023-08-31T12:58:05;4.45;;;1.10;;
46491;SDS011;32206;51.446;6.792;2023-08-31T13:00:31;1.25;;;0.90;;
46491;SDS011;32206;51.446;6.792;2023-08-31T13:02:57;3.22;;;0.85;;
46491;SDS011;32206;51.446;6.792;2023-08-31T13:08:45;6.30;;;2.38;;
46491;SDS011;32206;51.446;6.792;2023-08-31T13:11:11;4.22;;;0.98;;
46491;SDS011;32206;51.446;6.792;2023-08-31T13:13:40;2.67;;;1.02;;
46491;SDS011;32206;51.446;6.792;2023-08-31T13:16:06;2.90;;;0.88;;
46491;SDS011;32206;51.446;6.792;2023-08-31T13:18:31;1.67;;;1.15;;
46491;SDS011;32206;51.446;6.792;2023-08-31T13:20:57;3.70;;;1.60;;
46491;SDS011;32206;51.446;6.792;2023-08-31T13:23:23;3.90;;;1.20;;
46491;SDS011;32206;51.446;6.792;2023-08-31T13:25:49;2.15;;;1.00;;
46491;SDS011;32206;51.446;6.792;2023-08-31T13:28:16;4.60;;;1.15;;
46491;SDS011;32206;51.446;6.792;2023-08-31T13:30:41;4.15;;;1.00;;
46491;SDS011;32206;51.446;6.792;2023-08-31T13:33:07;2.17;;;1.10;;
46491;SDS011;32206;51.446;6.792;2023-08-31T13:35:33;4.07;;;0.90;;
46491;SDS011;32206;51.446;6.792;2023-08-31T13:38:00;3.20;;;1.13;;
46491;SDS011;32206;51.446;6.792;2023-08-31T13:40:26;2.58;;;0.93;;
46491;SDS011;32206;51.446;6.792;2023-08-31T13:43:01;5.43;;;1.67;;
46491;SDS011;32206;51.446;6.792;2023-08-31T13:45:30;4.75;;;1.23;;
46491;SDS011;32206;51.446;6.792;2023-08-31T13:47:57;3.20;;;0.98;;
46491;SDS011;32206;51.446;6.792;2023-08-31T13:50:25;3.60;;;1.38;;
46491;SDS011;32206;51.446;6.792;2023-08-31T13:52:51;2.65;;;1.20;;
46491;SDS011;32206;51.446;6.792;2023-08-31T13:55:17;3.42;;;1.30;;
46491;SDS011;32206;51.446;6.792;2023-08-31T14:01:05;2.15;;;1.38;;
46491;SDS011;32206;51.446;6.792;2023-08-31T14:03:30;2.20;;;1.20;;
46491;SDS011;32206;51.446;6.792;2023-08-31T14:05:56;1.63;;;1.13;;
46491;SDS011;32206;51.446;6.792;2023-08-31T14:08:22;6.43;;;5.38;;
46491;SDS011;32206;51.446;6.792;2023-08-31T14:10:48;11.65;;;6.53;;
46491;SDS011;32206;51.446;6.792;2023-08-31T14:13:13;3.45;;;1.35;;
46491;SDS011;32206;51.446;6.792;2023-08-31T14:15:44;6.57;;;1.80;;
46491;SDS011;32206;51.446;6.792;2023-08-31T14:18:11;7.07;;;1.73;;
46491;SDS011;32206;51.446;6.792;2023-08-31T14:20:37;4.90;;;2.35;;
46491;SDS011;32206;51.446;6.792;2023-08-31T14:23:04;6.10;;;2.10;;
46491;SDS011;32206;51.446;6.792;2023-08-31T14:25:36;11.10;;;2.53;;
46491;SDS011;32206;51.446;6.792;2023-08-31T14:28:03;6.03;;;2.83;;
46491;SDS011;32206;51.446;6.792;2023-08-31T14:30:29;6.53;;;2.72;;
46491;SDS011;32206;51.446;6.792;2023-08-31T14:32:55;4.95;;;2.45;;
46491;SDS011;32206;51.446;6.792;2023-08-31T14:35:21;6.97;;;2.40;;
46491;SDS011;32206;51.446;6.792;2023-08-31T14:37:46;5.05;;;2.83;;
46491;SDS011;32206;51.446;6.792;2023-08-31T14:40:12;4.13;;;2.88;;
46491;SDS011;32206;51.446;6.792;2023-08-31T14:42:39;5.60;;;2.35;;
46491;SDS011;32206;51.446;6.792;2023-08-31T14:45:05;5.53;;;2.05;;
46491;SDS011;32206;51.446;6.792;2023-08-31T14:47:31;2.35;;;1.90;;
46491;SDS011;32206;51.446;6.792;2023-08-31T14:49:57;4.78;;;2.17;;
46491;SDS011;32206;51.446;6.792;2023-08-31T14:52:23;3.00;;;1.83;;
46491;SDS011;32206;51.446;6.792;2023-08-31T14:54:48;5.85;;;2.25;;
46491;SDS011;32206;51.446;6.792;2023-08-31T14:57:14;5.82;;;2.10;;
46491;SDS011;32206;51.446;6.792;2023-08-31T14:59:40;3.78;;;1.58;;
46491;SDS011;32206;51.446;6.792;2023-08-31T15:02:07;8.80;;;3.25;;
46491;SDS011;32206;51.446;6.792;2023-08-31T15:04:33;7.03;;;2.35;;
46491;SDS011;32206;51.446;6.792;2023-08-31T15:06:59;6.47;;;2.40;;
46491;SDS011;32206;51.446;6.792;2023-08-31T15:09:25;4.82;;;2.85;;
46491;SDS011;32206;51.446;6.792;2023-08-31T15:11:51;8.35;;;2.28;;
46491;SDS011;32206;51.446;6.792;2023-08-31T15:14:17;5.82;;;2.90;;
46491;SDS011;32206;51.446;6.792;2023-08-31T15:16:43;6.25;;;2.75;;
46491;SDS011;32206;51.446;6.792;2023-08-31T15:22:30;7.00;;;3.45;;
46491;SDS011;32206;51.446;6.792;2023-08-31T15:24:56;6.18;;;3.05;;
46491;SDS011;32206;51.446;6.792;2023-08-31T15:27:22;7.15;;;3.38;;
46491;SDS011;32206;51.446;6.792;2023-08-31T15:29:47;7.80;;;3.50;;
46491;SDS011;32206;51.446;6.792;2023-08-31T15:32:13;3.30;;;1.67;;
46491;SDS011;32206;51.446;6.792;2023-08-31T15:34:40;2.40;;;1.33;;
46491;SDS011;32206;51.446;6.792;2023-08-31T15:37:06;3.80;;;1.25;;
46491;SDS011;32206;51.446;6.792;2023-08-31T15:39:32;3.65;;;1.65;;
46491;SDS011;32206;51.446;6.792;2023-08-31T15:41:58;3.58;;;1.75;;
46491;SDS011;32206;51.446;6.792;2023-08-31T15:44:24;3.50;;;1.75;;
46491;SDS011;32206;51.446;6.792;2023-08-31T15:46:49;5.72;;;1.48;;
46491;SDS011;32206;51.446;6.792;2023-08-31T15:49:15;4.80;;;2.13;;
46491;SDS011;32206;51.446;6.792;2023-08-31T15:51:41;4.15;;;1.52;;
46491;SDS011;32206;51.446;6.792;2023-08-31T15:54:06;1.58;;;1.20;;
46491;SDS011;32206;51.446;6.792;2023-08-31T15:56:32;3.00;;;1.67;;
46491;SDS011;32206;51.446;6.792;2023-08-31T15:58:58;5.35;;;1.65;;
46491;SDS011;32206;51.446;6.792;2023-08-31T16:01:36;1.88;;;1.65;;
46491;SDS011;32206;51.446;6.792;2023-08-31T16:07:36;3.80;;;1.70;;
46491;SDS011;32206;51.446;6.792;2023-08-31T16:10:04;4.22;;;1.80;;
46491;SDS011;32206;51.446;6.792;2023-08-31T16:12:30;5.35;;;1.67;;
46491;SDS011;32206;51.446;6.792;2023-08-31T16:14:56;3.60;;;2.30;;